createdAt,value
2022-07-28T00:00:37.770Z,46.00
2022-07-28T00:03:06.848Z,46.00
2022-07-28T00:05:37.426Z,46.10
2022-07-28T00:08:06.643Z,46.20
2022-07-28T00:10:35.442Z,46.40
2022-07-28T00:13:06.813Z,46.50
2022-07-28T00:15:36.116Z,46.50
2022-07-28T00:18:05.381Z,46.70
2022-07-28T00:20:34.349Z,46.90
2022-07-28T00:23:04.853Z,47.00
2022-07-28T00:25:33.800Z,46.90
2022-07-28T00:28:02.986Z,46.80
2022-07-28T00:30:32.029Z,47.00
2022-07-28T00:33:01.232Z,47.10
2022-07-28T00:35:30.804Z,47.10
2022-07-28T00:38:01.054Z,47.30
2022-07-28T00:40:45.359Z,47.50
2022-07-28T00:43:14.345Z,47.60
2022-07-28T00:45:43.259Z,47.60
2022-07-28T00:48:12.171Z,47.60
2022-07-28T00:50:41.684Z,47.50
2022-07-28T00:53:10.804Z,47.50
2022-07-28T00:56:02.697Z,47.30
2022-07-28T00:58:31.019Z,47.30
2022-07-28T01:01:00.109Z,47.30
2022-07-28T01:03:30.043Z,47.40
2022-07-28T01:06:07.674Z,47.60
2022-07-28T01:08:48.825Z,47.70
2022-07-28T01:11:27.436Z,47.70
2022-07-28T01:14:03.952Z,47.70
2022-07-28T01:16:33.242Z,47.90
2022-07-28T01:19:08.311Z,47.90
2022-07-28T01:21:41.307Z,48.10
2022-07-28T01:24:18.727Z,48.10
2022-07-28T01:26:59.510Z,48.00
2022-07-28T01:30:04.157Z,48.00
2022-07-28T01:32:40.236Z,48.20
2022-07-28T01:35:14.279Z,48.30
2022-07-28T01:37:47.291Z,48.30
2022-07-28T01:40:20.915Z,48.70
2022-07-28T01:42:53.403Z,48.70
2022-07-28T01:45:24.415Z,48.70
2022-07-28T01:47:57.948Z,48.80
2022-07-28T01:50:29.254Z,49.00
2022-07-28T01:53:00.035Z,48.80
2022-07-28T01:55:30.852Z,48.90
2022-07-28T01:58:02.535Z,48.90
2022-07-28T02:00:32.651Z,49.10
2022-07-28T02:03:07.034Z,49.20
2022-07-28T02:05:37.555Z,49.30
2022-07-28T02:08:07.993Z,49.40
2022-07-28T02:10:38.579Z,49.40
2022-07-28T02:13:09.427Z,49.30
2022-07-28T02:15:40.293Z,49.30
2022-07-28T02:18:12.043Z,49.30
2022-07-28T02:20:42.683Z,49.30
2022-07-28T02:23:15.483Z,49.30
2022-07-28T02:25:45.217Z,49.40
2022-07-28T02:28:15.300Z,49.50
2022-07-28T02:30:50.422Z,49.50
2022-07-28T02:33:58.919Z,49.60
2022-07-28T02:36:20.910Z,49.60
2022-07-28T02:38:51.864Z,49.50
2022-07-28T02:41:25.867Z,49.50
2022-07-28T02:43:59.025Z,49.70
2022-07-28T02:46:33.596Z,49.70
2022-07-28T02:49:07.748Z,49.60
2022-07-28T02:51:38.739Z,49.70
2022-07-28T02:54:08.210Z,49.70
2022-07-28T02:56:38.304Z,49.70
2022-07-28T02:59:08.339Z,49.80
2022-07-28T03:01:38.131Z,50.00
2022-07-28T03:04:08.924Z,50.10
2022-07-28T03:06:38.234Z,50.20
2022-07-28T03:09:09.647Z,50.10
2022-07-28T03:11:53.038Z,50.10
2022-07-28T03:14:22.147Z,50.30
2022-07-28T03:16:55.392Z,50.20
2022-07-28T03:19:26.223Z,50.20
2022-07-28T03:21:55.468Z,50.30
2022-07-28T03:24:26.285Z,50.30
2022-07-28T03:27:00.728Z,50.30
2022-07-28T03:29:32.247Z,50.50
2022-07-28T03:32:01.906Z,50.30
2022-07-28T03:34:32.515Z,50.30
2022-07-28T03:37:06.150Z,50.30
2022-07-28T03:39:41.803Z,50.30
2022-07-28T03:42:12.140Z,50.50
2022-07-28T03:44:41.825Z,50.60
2022-07-28T03:47:10.949Z,50.40
2022-07-28T03:49:41.427Z,50.60
2022-07-28T03:52:10.375Z,50.60
2022-07-28T03:54:39.256Z,50.60
2022-07-28T03:57:08.112Z,50.70
2022-07-28T03:59:37.094Z,50.80
2022-07-28T04:02:06.973Z,50.90
2022-07-28T04:04:35.982Z,51.00
2022-07-28T04:07:06.276Z,51.00
2022-07-28T04:09:36.817Z,51.00
2022-07-28T04:12:06.470Z,51.10
2022-07-28T04:14:36.114Z,51.20
2022-07-28T04:17:05.313Z,51.20
2022-07-28T04:19:34.421Z,51.30
2022-07-28T04:22:03.334Z,51.10
2022-07-28T04:24:33.965Z,51.00
2022-07-28T04:27:03.329Z,51.20
2022-07-28T04:29:32.528Z,51.30
2022-07-28T04:32:02.260Z,51.30
2022-07-28T04:34:31.247Z,51.30
2022-07-28T04:37:00.308Z,51.30
2022-07-28T04:39:29.399Z,51.40
2022-07-28T04:41:59.791Z,51.40
2022-07-28T04:44:29.271Z,51.50
2022-07-28T04:46:58.319Z,51.50
2022-07-28T04:49:27.526Z,51.30
2022-07-28T04:51:57.115Z,51.20
2022-07-28T04:54:27.112Z,51.20
2022-07-28T04:56:56.599Z,51.10
2022-07-28T04:59:27.648Z,51.30
2022-07-28T05:01:57.536Z,51.30
2022-07-28T05:04:27.064Z,51.40
2022-07-28T05:06:56.177Z,51.30
2022-07-28T05:09:25.221Z,51.30
2022-07-28T05:11:54.559Z,51.30
2022-07-28T05:14:23.540Z,51.30
2022-07-28T05:16:54.105Z,51.10
2022-07-28T05:19:23.216Z,51.20
2022-07-28T05:21:52.442Z,51.20
2022-07-28T05:24:21.525Z,51.10
2022-07-28T05:26:50.607Z,51.20
2022-07-28T05:29:19.916Z,51.20
2022-07-28T05:31:49.210Z,51.20
2022-07-28T05:34:19.859Z,51.10
2022-07-28T05:36:50.221Z,51.10
2022-07-28T05:39:19.341Z,51.00
2022-07-28T05:41:48.508Z,50.90
2022-07-28T05:44:17.668Z,50.90
2022-07-28T05:46:46.872Z,50.90
2022-07-28T05:49:15.903Z,51.00
2022-07-28T05:51:46.656Z,50.80
2022-07-28T05:54:16.843Z,50.60
2022-07-28T05:56:50.257Z,50.60
2022-07-28T05:59:19.717Z,50.40
2022-07-28T06:01:49.208Z,50.30
2022-07-28T06:04:27.863Z,50.20
2022-07-28T06:06:59.432Z,50.30
2022-07-28T06:09:28.536Z,50.40
2022-07-28T06:11:57.808Z,50.30
2022-07-28T06:14:27.474Z,50.20
2022-07-28T06:16:56.623Z,50.20
2022-07-28T06:19:26.192Z,50.20
2022-07-28T06:21:55.265Z,50.00
2022-07-28T06:24:26.163Z,49.80
2022-07-28T06:26:55.610Z,49.90
2022-07-28T06:29:24.951Z,49.70
2022-07-28T06:31:54.033Z,49.60
2022-07-28T06:34:23.424Z,49.40
2022-07-28T06:36:52.710Z,49.40
2022-07-28T06:39:22.005Z,49.60
2022-07-28T06:41:52.374Z,49.30
2022-07-28T06:44:23.638Z,49.10
2022-07-28T06:46:54.106Z,49.00
2022-07-28T06:49:23.287Z,48.90
2022-07-28T06:51:52.479Z,48.80
2022-07-28T06:54:21.599Z,48.80
2022-07-28T06:56:53.659Z,48.70
2022-07-28T06:59:24.426Z,48.50
2022-07-28T07:01:53.375Z,48.50
2022-07-28T07:04:22.391Z,47.10
2022-07-28T07:06:51.370Z,46.50
2022-07-28T07:09:20.608Z,46.30
2022-07-28T07:11:49.694Z,46.50
2022-07-28T07:14:20.099Z,44.80
2022-07-28T07:16:49.455Z,45.00
2022-07-28T07:19:18.752Z,44.70
2022-07-28T07:21:47.803Z,44.90
2022-07-28T07:24:17.690Z,44.80
2022-07-28T07:26:47.118Z,44.50
2022-07-28T07:29:16.195Z,44.00
2022-07-28T07:31:46.633Z,43.70
2022-07-28T07:34:21.770Z,43.80
2022-07-28T07:36:50.968Z,43.40
2022-07-28T07:39:20.126Z,43.40
2022-07-28T07:41:49.503Z,43.10
2022-07-28T07:44:18.852Z,43.20
2022-07-28T07:46:49.534Z,42.60
2022-07-28T07:49:18.784Z,42.60
2022-07-28T07:51:48.029Z,43.10
2022-07-28T07:54:17.853Z,42.30
2022-07-28T07:56:48.176Z,42.40
2022-07-28T07:59:17.381Z,42.50
2022-07-28T08:01:46.848Z,41.80
2022-07-28T08:04:17.949Z,42.10
2022-07-28T08:06:54.538Z,42.00
2022-07-28T08:09:24.070Z,41.20
2022-07-28T08:11:53.347Z,41.20
2022-07-28T08:14:22.386Z,41.00
2022-07-28T08:16:52.380Z,41.30
2022-07-28T08:19:23.084Z,40.60
2022-07-28T08:21:52.636Z,40.60
2022-07-28T08:24:33.106Z,40.70
2022-07-28T08:27:04.037Z,40.60
2022-07-28T08:29:33.199Z,41.10
2022-07-28T08:32:04.176Z,40.70
2022-07-28T08:34:35.014Z,40.40
2022-07-28T08:37:06.557Z,40.10
2022-07-28T08:39:37.132Z,40.70
2022-07-28T08:42:08.096Z,40.80
2022-07-28T08:44:47.145Z,40.60
2022-07-28T08:47:17.483Z,40.40
2022-07-28T08:49:50.015Z,39.50
2022-07-28T08:52:21.704Z,39.30
2022-07-28T08:54:52.127Z,38.90
2022-07-28T08:57:27.837Z,39.30
2022-07-28T08:59:57.741Z,39.30
2022-07-28T09:02:29.400Z,38.80
2022-07-28T09:05:00.624Z,39.20
2022-07-28T09:07:30.164Z,38.60
2022-07-28T09:10:02.519Z,38.20
2022-07-28T09:12:34.144Z,38.00
2022-07-28T09:15:04.099Z,38.40
2022-07-28T09:17:34.504Z,39.00
2022-07-28T09:20:10.689Z,38.10
2022-07-28T09:22:57.381Z,37.80
2022-07-28T09:25:27.665Z,38.00
2022-07-28T09:27:57.273Z,38.20
2022-07-28T09:30:30.890Z,38.00
2022-07-28T09:33:41.381Z,37.80
2022-07-28T09:36:16.876Z,37.90
2022-07-28T09:38:46.210Z,37.30
2022-07-28T09:41:18.609Z,37.40
2022-07-28T09:43:52.543Z,37.80
2022-07-28T09:46:26.023Z,37.30
2022-07-28T09:48:58.298Z,37.20
2022-07-28T09:51:30.594Z,37.50
2022-07-28T09:54:08.714Z,37.10
2022-07-28T09:56:38.122Z,36.90
2022-07-28T09:59:08.138Z,36.20
2022-07-28T10:01:52.582Z,37.30
2022-07-28T10:04:32.590Z,37.60
2022-07-28T10:07:09.737Z,37.30
2022-07-28T10:09:39.708Z,36.00
2022-07-28T10:12:24.363Z,36.20
2022-07-28T10:14:55.406Z,36.30
2022-07-28T10:17:35.212Z,35.90
2022-07-28T10:20:07.822Z,35.90
2022-07-28T10:22:43.298Z,36.30
2022-07-28T10:25:13.489Z,35.30
2022-07-28T10:27:44.048Z,34.90
2022-07-28T10:30:15.120Z,35.20
2022-07-28T10:32:46.824Z,35.40
2022-07-28T10:35:17.527Z,35.50
2022-07-28T10:37:55.374Z,35.20
2022-07-28T10:40:29.628Z,35.20
2022-07-28T10:42:59.740Z,35.90
2022-07-28T10:46:02.654Z,35.00
2022-07-28T10:48:21.594Z,35.40
2022-07-28T10:50:54.996Z,35.20
2022-07-28T10:53:34.971Z,35.50
2022-07-28T10:56:14.279Z,35.30
2022-07-28T10:58:50.690Z,35.70
2022-07-28T11:01:52.100Z,35.10
2022-07-28T11:04:55.271Z,35.70
2022-07-28T11:07:24.485Z,35.10
2022-07-28T11:09:54.908Z,35.20
2022-07-28T11:12:46.926Z,35.60
2022-07-28T11:15:32.041Z,35.70
2022-07-28T11:18:06.964Z,35.30
2022-07-28T11:21:07.827Z,35.40
2022-07-28T11:23:46.846Z,35.30
2022-07-28T11:26:37.503Z,35.00
2022-07-28T11:29:20.049Z,35.20
2022-07-28T11:32:06.034Z,34.70
2022-07-28T11:35:09.782Z,34.80
2022-07-28T11:38:10.824Z,35.10
2022-07-28T11:40:42.028Z,35.30
2022-07-28T11:43:42.994Z,34.90
2022-07-28T11:46:37.651Z,35.00
2022-07-28T11:49:25.797Z,35.10
2022-07-28T11:52:18.178Z,34.90
2022-07-28T11:54:54.653Z,34.50
2022-07-28T11:57:26.246Z,34.50
2022-07-28T12:00:08.105Z,34.40
2022-07-28T12:02:37.622Z,33.60
2022-07-28T12:05:12.859Z,34.50
2022-07-28T12:07:48.266Z,33.90
2022-07-28T12:13:29.452Z,33.40
2022-07-28T12:16:00.255Z,33.80
2022-07-28T12:18:29.826Z,33.70
2022-07-28T12:21:04.652Z,33.90
2022-07-28T12:23:46.023Z,33.70
2022-07-28T12:26:31.845Z,33.70
2022-07-28T12:29:08.617Z,33.80
2022-07-28T12:31:54.155Z,32.80
2022-07-28T12:34:26.640Z,33.20
2022-07-28T12:37:01.911Z,32.70
2022-07-28T12:39:34.027Z,32.20
2022-07-28T12:42:04.628Z,33.30
2022-07-28T12:44:36.069Z,33.60
2022-07-28T12:47:08.883Z,33.80
2022-07-28T12:49:39.722Z,33.60
2022-07-28T12:52:22.458Z,33.50
2022-07-28T12:54:54.629Z,33.50
2022-07-28T12:57:47.671Z,33.60
2022-07-28T13:00:20.339Z,33.40
2022-07-28T13:02:52.580Z,33.30
2022-07-28T13:05:29.295Z,32.90
2022-07-28T13:08:04.844Z,33.00
2022-07-28T13:10:34.822Z,32.80
2022-07-28T13:13:07.435Z,33.00
2022-07-28T13:15:36.473Z,32.90
2022-07-28T13:18:07.037Z,32.60
2022-07-28T13:20:48.865Z,31.20
2022-07-28T13:23:18.064Z,32.00
2022-07-28T13:25:47.790Z,31.30
2022-07-28T13:28:25.829Z,31.10
2022-07-28T13:30:55.794Z,31.00
2022-07-28T13:33:28.356Z,30.60
2022-07-28T13:35:58.637Z,30.50
2022-07-28T13:38:27.942Z,30.60
2022-07-28T13:40:57.347Z,30.60
2022-07-28T13:43:35.810Z,31.30
2022-07-28T13:46:05.776Z,31.20
2022-07-28T13:48:40.243Z,30.60
2022-07-28T13:51:27.228Z,31.10
2022-07-28T13:53:56.560Z,31.00
2022-07-28T13:56:42.225Z,30.90
2022-07-28T13:59:13.356Z,31.00
2022-07-28T14:01:43.040Z,31.30
2022-07-28T14:04:17.258Z,30.90
2022-07-28T14:06:46.787Z,30.60
2022-07-28T14:09:18.376Z,30.20
2022-07-28T14:11:53.521Z,29.90
2022-07-28T14:14:25.290Z,30.10
2022-07-28T14:16:55.273Z,30.20
2022-07-28T14:19:38.672Z,29.80
2022-07-28T14:22:13.221Z,29.20
2022-07-28T14:24:43.187Z,30.00
2022-07-28T14:27:12.227Z,30.40
2022-07-28T14:29:42.501Z,30.80
2022-07-28T14:32:11.547Z,29.90
2022-07-28T14:34:42.140Z,29.90
2022-07-28T14:37:11.929Z,29.60
2022-07-28T14:39:41.200Z,29.70
2022-07-28T14:42:10.850Z,30.00
2022-07-28T14:44:39.852Z,29.70
2022-07-28T14:47:08.922Z,29.70
2022-07-28T14:49:37.972Z,30.00
2022-07-28T14:52:29.413Z,30.20
2022-07-28T14:54:59.178Z,30.30
2022-07-28T14:57:46.823Z,30.20
2022-07-28T15:00:19.221Z,29.90
2022-07-28T15:02:48.500Z,30.20
2022-07-28T15:05:17.892Z,30.00
2022-07-28T15:07:49.372Z,30.00
2022-07-28T15:10:19.876Z,29.90
2022-07-28T15:12:49.991Z,30.00
2022-07-28T15:15:21.073Z,29.80
2022-07-28T15:17:50.078Z,30.10
2022-07-28T15:20:19.318Z,30.10
2022-07-28T15:22:49.962Z,29.90
2022-07-28T15:25:19.301Z,30.30
2022-07-28T15:27:48.392Z,30.50
2022-07-28T15:30:17.590Z,30.40
2022-07-28T15:32:56.417Z,30.60
2022-07-28T15:35:26.838Z,30.40
2022-07-28T15:37:57.037Z,30.40
2022-07-28T15:40:26.203Z,30.50
2022-07-28T15:42:56.103Z,30.00
2022-07-28T15:45:25.460Z,30.00
2022-07-28T15:47:55.248Z,30.30
2022-07-28T15:50:24.312Z,30.20
2022-07-28T15:52:53.114Z,30.50
2022-07-28T15:55:23.302Z,30.70
2022-07-28T15:57:52.451Z,30.50
2022-07-28T16:00:21.622Z,30.50
2022-07-28T16:02:52.512Z,30.50
2022-07-28T16:05:21.582Z,30.40
2022-07-28T16:07:50.790Z,30.20
2022-07-28T16:10:19.740Z,30.60
2022-07-28T16:12:50.827Z,30.20
2022-07-28T16:15:20.220Z,30.70
2022-07-28T16:17:49.972Z,30.80
2022-07-28T16:20:18.998Z,30.60
2022-07-28T16:22:47.991Z,30.50
2022-07-28T16:25:17.544Z,30.70
2022-07-28T16:27:47.474Z,30.90
2022-07-28T16:30:19.268Z,30.80
2022-07-28T16:32:49.319Z,31.30
2022-07-28T16:35:19.255Z,30.90
2022-07-28T16:37:48.492Z,30.90
2022-07-28T16:40:17.775Z,31.00
2022-07-28T16:42:46.717Z,31.00
2022-07-28T16:45:17.497Z,31.00
2022-07-28T16:47:48.845Z,30.80
2022-07-28T16:50:18.931Z,31.20
2022-07-28T16:52:49.681Z,31.70
2022-07-28T16:55:23.372Z,31.10
2022-07-28T16:57:52.601Z,31.10
2022-07-28T17:00:25.570Z,31.00
2022-07-28T17:02:54.771Z,31.00
2022-07-28T17:05:24.816Z,31.20
2022-07-28T17:07:54.477Z,31.40
2022-07-28T17:10:27.474Z,31.30
2022-07-28T17:12:58.469Z,31.50
2022-07-28T17:15:28.968Z,31.40
2022-07-28T17:17:58.199Z,31.00
2022-07-28T17:20:27.331Z,31.30
2022-07-28T17:22:57.760Z,31.20
2022-07-28T17:28:17.113Z,31.20
2022-07-28T17:30:47.647Z,31.10
2022-07-28T17:33:16.678Z,31.20
2022-07-28T17:35:45.706Z,31.10
2022-07-28T17:38:18.323Z,31.30
2022-07-28T17:40:51.010Z,31.70
2022-07-28T17:43:20.500Z,31.30
2022-07-28T17:45:51.084Z,31.30
2022-07-28T17:48:20.108Z,31.10
2022-07-28T17:50:50.042Z,31.10
2022-07-28T17:53:20.206Z,31.20
2022-07-28T17:56:00.074Z,31.30
2022-07-28T17:58:32.129Z,31.20
2022-07-28T18:01:09.629Z,31.40
2022-07-28T18:03:58.692Z,31.50
2022-07-28T18:06:32.286Z,31.40
2022-07-28T18:09:05.744Z,31.60
2022-07-28T18:11:56.594Z,31.60
2022-07-28T18:14:28.818Z,31.70
2022-07-28T18:16:59.868Z,31.70
2022-07-28T18:19:29.409Z,31.90
2022-07-28T18:21:58.365Z,31.90
2022-07-28T18:24:27.158Z,31.90
2022-07-28T18:26:58.148Z,31.80
2022-07-28T18:29:38.453Z,32.00
2022-07-28T18:32:12.075Z,32.00
2022-07-28T18:34:41.579Z,32.10
2022-07-28T18:37:10.375Z,32.20
2022-07-28T18:39:39.489Z,32.20
2022-07-28T18:42:09.031Z,32.30
2022-07-28T18:44:37.960Z,32.30
2022-07-28T18:47:07.135Z,32.70
2022-07-28T18:49:38.091Z,32.50
2022-07-28T18:52:07.931Z,33.10
2022-07-28T18:54:36.954Z,32.60
2022-07-28T18:57:06.111Z,32.80
2022-07-28T18:59:38.809Z,32.70
2022-07-28T19:02:10.736Z,32.80
2022-07-28T19:04:41.575Z,32.70
2022-07-28T19:07:10.659Z,32.80
2022-07-28T19:09:39.887Z,32.90
2022-07-28T19:12:09.821Z,33.00
2022-07-28T19:14:39.548Z,33.20
2022-07-28T19:17:09.411Z,33.20
2022-07-28T19:19:38.237Z,33.40
2022-07-28T19:22:09.645Z,33.50
2022-07-28T19:24:38.884Z,33.50
2022-07-28T19:27:07.866Z,33.60
2022-07-28T19:29:37.076Z,33.80
2022-07-28T19:32:07.827Z,33.80
2022-07-28T19:34:36.871Z,33.80
2022-07-28T19:37:06.658Z,34.00
2022-07-28T19:39:37.240Z,34.00
2022-07-28T19:42:09.276Z,34.60
2022-07-28T19:44:38.796Z,34.50
2022-07-28T19:47:08.665Z,34.60
2022-07-28T19:49:39.287Z,34.80
2022-07-28T19:52:08.656Z,34.70
2022-07-28T19:54:39.089Z,34.70
2022-07-28T19:57:12.326Z,35.20
2022-07-28T19:59:43.418Z,35.20
2022-07-28T20:02:14.339Z,35.00
2022-07-28T20:04:43.783Z,34.90
2022-07-28T20:07:12.901Z,34.80
2022-07-28T20:09:43.288Z,34.70
2022-07-28T20:12:12.688Z,34.80
2022-07-28T20:14:41.771Z,34.80
2022-07-28T20:17:24.363Z,34.90
2022-07-28T20:19:59.959Z,34.90
2022-07-28T20:22:29.194Z,34.80
2022-07-28T20:24:59.619Z,35.00
2022-07-28T20:27:28.858Z,35.10
2022-07-28T20:29:58.772Z,35.00
2022-07-28T20:32:27.992Z,35.00
2022-07-28T20:34:58.209Z,35.20
2022-07-28T20:37:36.209Z,35.20
2022-07-28T20:40:08.861Z,35.30
2022-07-28T20:42:38.257Z,35.40
2022-07-28T20:45:07.898Z,35.60
2022-07-28T20:47:37.186Z,35.60
2022-07-28T20:50:07.907Z,36.00
2022-07-28T20:52:37.239Z,35.50
2022-07-28T20:55:09.104Z,35.60
2022-07-28T20:57:39.040Z,35.70
2022-07-28T21:00:09.604Z,35.70
2022-07-28T21:02:39.047Z,36.00
2022-07-28T21:05:08.927Z,35.80
2022-07-28T21:08:00.801Z,36.00
2022-07-28T21:10:37.559Z,36.00
2022-07-28T21:13:06.535Z,36.00
2022-07-28T21:15:35.883Z,36.00
2022-07-28T21:18:05.070Z,35.90
2022-07-28T21:20:34.566Z,36.10
2022-07-28T21:23:03.605Z,36.20
2022-07-28T21:25:33.042Z,36.20
2022-07-28T21:28:21.041Z,36.10
2022-07-28T21:30:49.916Z,36.20
2022-07-28T21:33:23.002Z,36.40
2022-07-28T21:35:52.392Z,36.40
2022-07-28T21:38:21.914Z,36.80
2022-07-28T21:40:50.703Z,36.70
2022-07-28T21:43:21.219Z,36.50
2022-07-28T21:45:50.422Z,36.60
2022-07-28T21:48:23.313Z,38.00
2022-07-28T21:50:52.384Z,37.30
2022-07-28T21:53:22.149Z,36.60
2022-07-28T21:55:52.761Z,36.80
2022-07-28T21:58:23.187Z,37.10
2022-07-28T22:00:52.240Z,37.00
2022-07-28T22:03:21.403Z,36.90
2022-07-28T22:05:50.791Z,37.20
2022-07-28T22:08:21.294Z,37.00
2022-07-28T22:10:50.264Z,37.10
2022-07-28T22:13:19.463Z,37.20
2022-07-28T22:15:49.883Z,37.80
2022-07-28T22:18:19.236Z,37.70
2022-07-28T22:20:49.581Z,37.90
2022-07-28T22:23:20.576Z,37.90
2022-07-28T22:25:58.926Z,38.10
2022-07-28T22:28:29.720Z,38.30
2022-07-28T22:31:09.518Z,38.40
2022-07-28T22:33:39.563Z,38.10
2022-07-28T22:36:09.425Z,38.20
2022-07-28T22:38:38.567Z,38.20
2022-07-28T22:41:08.019Z,38.40
2022-07-28T22:43:37.274Z,38.20
2022-07-28T22:46:10.301Z,38.40
2022-07-28T22:48:39.563Z,38.20
2022-07-28T22:51:11.761Z,38.40
2022-07-28T22:53:41.086Z,38.40
2022-07-28T22:56:11.423Z,38.80
2022-07-28T22:58:40.635Z,38.40
2022-07-28T23:01:11.176Z,38.60
2022-07-28T23:03:40.381Z,38.80
2022-07-28T23:06:09.530Z,38.90
2022-07-28T23:08:38.679Z,39.10
2022-07-28T23:11:07.879Z,39.10
2022-07-28T23:13:36.918Z,39.70
2022-07-28T23:16:10.992Z,39.10
2022-07-28T23:18:40.555Z,39.40
2022-07-28T23:21:10.153Z,39.30
2022-07-28T23:23:40.181Z,39.20
2022-07-28T23:26:09.724Z,39.20
2022-07-28T23:28:39.947Z,39.10
2022-07-28T23:31:10.789Z,39.10
2022-07-28T23:33:55.021Z,39.30
2022-07-28T23:36:27.834Z,39.20
2022-07-28T23:38:58.933Z,39.30
2022-07-28T23:41:28.347Z,39.30
2022-07-28T23:43:57.389Z,39.50
2022-07-28T23:46:28.231Z,39.60
2022-07-28T23:48:57.401Z,39.70
2022-07-28T23:51:38.341Z,39.70
2022-07-28T23:54:16.200Z,40.10
2022-07-28T23:56:45.845Z,39.60
2022-07-28T23:59:15.009Z,39.70
